Time;durP1;ratioP1;P1;durP2;ratioP2;P2;SDS_P1;SDS_P2;PMS_P1;PMS_P2;Temp;Humidity;BMP_temperature;BMP_pressure;BME280_temperature;BME280_humidity;BME280_pressure;Samples;Min_cycle;Max_cycle;Signal;HPM_P1;HPM_P2
2023/03/01 00:01:30;;;;;;;12.27;7.23;;;15.00;41.70;;;;;;5130120;28;20252;-68
2023/03/01 00:04:00;;;;;;;12.57;8.47;;;10.70;48.80;;;;;;5129954;27;20204;-69
2023/03/01 00:06:29;;;;;;;11.53;6.97;;;8.00;54.80;;;;;;5130370;27;20196;-68
2023/03/01 00:08:58;;;;;;;10.63;6.70;;;6.20;61.60;;;;;;5130357;27;20661;-69
2023/03/01 00:11:29;;;;;;;7.73;6.30;;;5.40;73.10;;;;;;5130312;27;20206;-69
2023/03/01 00:14:01;;;;;;;14.30;6.17;;;4.80;88.40;;;;;;5129866;27;20202;-69
2023/03/01 00:16:33;;;;;;;8.97;6.50;;;4.40;94.70;;;;;;5130260;27;20623;-69
2023/03/01 00:19:03;;;;;;;10.40;6.47;;;4.10;98.30;;;;;;5128331;27;20206;-68
2023/03/01 00:21:32;;;;;;;11.07;7.00;;;3.90;99.90;;;;;;5130202;27;20225;-69
2023/03/01 00:24:01;;;;;;;13.77;6.40;;;3.70;99.90;;;;;;5129678;27;20291;-68
2023/03/01 00:26:30;;;;;;;12.10;6.60;;;3.50;99.90;;;;;;5130114;27;20201;-68
2023/03/01 00:29:01;;;;;;;12.37;6.13;;;3.30;99.90;;;;;;5129948;27;20188;-68
2023/03/01 00:31:31;;;;;;;9.70;6.73;;;3.20;99.90;;;;;;5128457;27;20292;-68
2023/03/01 00:34:03;;;;;;;9.30;6.00;;;3.20;99.90;;;;;;5129270;27;20601;-69
2023/03/01 00:36:34;;;;;;;9.90;5.73;;;3.10;99.90;;;;;;5129876;27;20183;-68
2023/03/01 00:39:05;;;;;;;10.53;6.13;;;3.10;99.90;;;;;;5129877;27;20229;-69
2023/03/01 00:41:34;;;;;;;9.30;6.10;;;3.10;99.90;;;;;;5129767;27;20204;-68
2023/03/01 00:44:05;;;;;;;10.90;5.90;;;3.00;99.90;;;;;;5128693;27;20304;-68
2023/03/01 00:46:36;;;;;;;13.70;6.53;;;3.00;99.90;;;;;;5128567;27;20252;-69
2023/03/01 00:49:06;;;;;;;12.10;6.37;;;3.10;99.90;;;;;;5127828;27;20682;-68
2023/03/01 00:51:35;;;;;;;15.23;6.67;;;3.10;99.90;;;;;;5128297;27;20205;-68
2023/03/01 00:54:04;;;;;;;14.60;6.90;;;3.10;99.90;;;;;;5129317;27;20225;-69
2023/03/01 00:56:33;;;;;;;10.17;6.70;;;3.10;99.90;;;;;;5127915;27;20269;-68
2023/03/01 00:59:04;;;;;;;15.60;7.13;;;3.10;99.90;;;;;;5117063;27;20266;-68
2023/03/01 01:01:33;;;;;;;8.90;6.30;;;3.10;99.90;;;;;;5120863;27;20297;-69
2023/03/01 01:04:05;;;;;;;14.23;6.53;;;3.10;99.90;;;;;;5108686;28;20198;-69
2023/03/01 01:06:35;;;;;;;12.57;7.07;;;3.10;99.90;;;;;;5124666;27;20273;-68
2023/03/01 01:09:06;;;;;;;11.53;6.13;;;3.10;99.90;;;;;;5102019;28;20715;-69
2023/03/01 01:11:36;;;;;;;10.07;6.03;;;3.20;99.90;;;;;;5110866;28;20213;-69
2023/03/01 01:14:06;;;;;;;12.73;6.33;;;3.20;99.90;;;;;;5094896;28;20239;-69
2023/03/01 01:16:35;;;;;;;12.70;6.53;;;3.20;99.90;;;;;;5093556;28;20237;-69
2023/03/01 01:19:04;;;;;;;10.13;6.70;;;3.20;99.90;;;;;;5094939;28;20220;-69
2023/03/01 01:21:34;;;;;;;14.43;6.67;;;3.30;99.90;;;;;;5094989;28;20196;-69
2023/03/01 01:24:05;;;;;;;15.90;7.13;;;3.30;99.90;;;;;;5110471;28;20212;-69
2023/03/01 01:26:35;;;;;;;10.80;6.73;;;3.30;99.90;;;;;;5115112;28;20201;-69
2023/03/01 01:29:05;;;;;;;12.23;6.83;;;3.40;99.90;;;;;;5113202;28;20220;-69
2023/03/01 01:31:38;;;;;;;12.63;7.03;;;3.40;99.90;;;;;;5113368;28;20204;-69
2023/03/01 01:34:11;;;;;;;14.10;6.90;;;3.40;99.90;;;;;;5113507;28;20284;-69
2023/03/01 01:36:39;;;;;;;9.50;7.27;;;3.40;99.90;;;;;;5105830;27;20251;-70
2023/03/01 01:39:12;;;;;;;10.83;6.93;;;3.40;99.90;;;;;;5106750;28;20225;-70
2023/03/01 01:41:43;;;;;;;12.93;7.30;;;3.40;99.90;;;;;;5112876;28;20202;-69
2023/03/01 01:44:15;;;;;;;9.23;6.77;;;3.50;99.90;;;;;;5113010;28;20201;-70
2023/03/01 01:46:50;;;;;;;11.67;7.37;;;3.50;99.90;;;;;;5113148;28;20232;-70
2023/03/01 01:49:33;;;;;;;16.37;8.37;;;3.50;99.90;;;;;;5114311;28;20201;-70
2023/03/01 01:52:08;;;;;;;12.10;7.57;;;3.50;99.90;;;;;;5113088;28;20563;-70
2023/03/01 01:54:42;;;;;;;13.67;8.10;;;3.50;99.90;;;;;;5114299;28;20199;-69
2023/03/01 01:57:15;;;;;;;14.40;7.93;;;3.50;99.90;;;;;;5114044;28;20261;-69
2023/03/01 01:59:50;;;;;;;14.27;6.93;;;3.60;99.90;;;;;;5112662;28;20249;-70
2023/03/01 02:02:21;;;;;;;15.77;8.13;;;3.50;99.90;;;;;;5114103;28;20202;-69
2023/03/01 02:04:55;;;;;;;13.93;7.77;;;3.50;99.90;;;;;;5114068;27;20200;-70
2023/03/01 02:07:25;;;;;;;16.60;8.67;;;3.50;99.90;;;;;;5114174;28;20636;-69
2023/03/01 02:09:54;;;;;;;17.40;8.77;;;3.40;99.90;;;;;;5113961;28;20204;-69
2023/03/01 02:12:25;;;;;;;14.13;8.80;;;3.50;99.90;;;;;;5112955;27;20212;-70
2023/03/01 02:14:54;;;;;;;16.97;8.90;;;3.50;99.90;;;;;;5112904;28;20246;-70
2023/03/01 02:17:24;;;;;;;12.10;8.40;;;3.60;99.90;;;;;;5095451;28;20562;-70
2023/03/01 02:20:06;;;;;;;15.63;9.53;;;3.70;99.90;;;;;;5092817;28;20313;-70
2023/03/01 02:22:38;;;;;;;18.50;9.37;;;3.60;99.90;;;;;;5111041;28;20289;-70
2023/03/01 02:25:22;;;;;;;15.53;8.83;;;3.70;99.90;;;;;;5113529;28;20219;-70
2023/03/01 02:27:56;;;;;;;17.17;9.53;;;3.70;99.90;;;;;;5103292;28;20564;-69
2023/03/01 02:30:28;;;;;;;18.33;9.40;;;3.70;99.90;;;;;;5109061;28;20197;-70
2023/03/01 02:33:02;;;;;;;13.50;9.23;;;3.60;99.90;;;;;;5092101;28;20206;-70
2023/03/01 02:35:35;;;;;;;19.37;10.07;;;3.60;99.90;;;;;;5091877;28;20660;-70
2023/03/01 02:38:07;;;;;;;12.60;9.47;;;3.70;99.90;;;;;;5093014;28;20227;-69
2023/03/01 02:40:39;;;;;;;16.60;9.67;;;3.70;99.90;;;;;;5093022;28;20195;-70
2023/03/01 02:43:11;;;;;;;18.43;9.67;;;3.70;99.90;;;;;;5127224;27;20566;-70
2023/03/01 02:45:50;;;;;;;21.63;9.50;;;3.70;99.90;;;;;;5112026;28;20197;-70
2023/03/01 02:48:19;;;;;;;18.20;10.43;;;3.70;99.90;;;;;;5113233;28;20213;-70
2023/03/01 02:51:04;;;;;;;21.93;10.97;;;3.70;99.90;;;;;;5111910;28;20202;-69
2023/03/01 02:53:42;;;;;;;21.33;11.33;;;3.60;99.90;;;;;;5111867;28;20204;-70
2023/03/01 02:56:13;;;;;;;17.70;10.43;;;3.60;99.90;;;;;;5111802;28;20292;-70
2023/03/01 02:58:46;;;;;;;21.83;11.60;;;3.70;99.90;;;;;;5111237;28;20244;-69
2023/03/01 03:01:16;;;;;;;20.67;11.53;;;3.80;99.90;;;;;;5113118;28;20601;-69
2023/03/01 03:03:45;;;;;;;22.97;12.13;;;3.80;99.90;;;;;;5111713;27;20293;-71
2023/03/01 03:06:15;;;;;;;22.03;11.93;;;3.80;99.90;;;;;;5111565;28;20202;-70
2023/03/01 03:08:43;;;;;;;23.33;12.33;;;3.70;99.90;;;;;;5111353;28;20221;-69
2023/03/01 03:11:12;;;;;;;17.30;12.13;;;3.70;99.90;;;;;;5111509;28;20205;-69
2023/03/01 03:13:47;;;;;;;20.97;12.13;;;3.70;99.90;;;;;;5111343;27;20196;-70
2023/03/01 03:16:19;;;;;;;23.80;12.67;;;3.70;99.90;;;;;;5111474;28;20233;-70
2023/03/01 03:18:48;;;;;;;23.70;12.30;;;3.70;99.90;;;;;;5111365;28;20221;-71
2023/03/01 03:21:18;;;;;;;22.37;12.53;;;3.70;99.90;;;;;;5112791;28;20200;-70
2023/03/01 03:23:46;;;;;;;22.50;12.97;;;3.60;99.90;;;;;;5112610;28;20196;-70
2023/03/01 03:26:15;;;;;;;23.37;12.77;;;3.60;99.90;;;;;;5112324;28;20201;-69
2023/03/01 03:28:44;;;;;;;22.43;11.87;;;3.70;99.90;;;;;;5112327;28;20239;-69
2023/03/01 03:31:13;;;;;;;24.23;13.40;;;3.70;99.90;;;;;;5112332;28;20210;-69
2023/03/01 03:33:43;;;;;;;24.03;13.27;;;3.60;99.90;;;;;;5112338;28;20605;-70
2023/03/01 03:36:17;;;;;;;24.30;13.00;;;3.60;99.90;;;;;;5112358;28;20194;-69
2023/03/01 03:38:47;;;;;;;25.03;14.60;;;3.60;99.90;;;;;;5112166;28;20222;-69
2023/03/01 03:41:16;;;;;;;25.00;12.90;;;3.70;99.90;;;;;;5112263;28;20204;-69
2023/03/01 03:43:45;;;;;;;23.77;12.97;;;3.60;99.90;;;;;;5112201;28;20217;-70
2023/03/01 03:46:14;;;;;;;22.00;12.70;;;3.50;99.90;;;;;;5029359;28;20214;-70
2023/03/01 03:48:47;;;;;;;26.77;13.40;;;3.50;99.90;;;;;;5029561;28;20252;-70
2023/03/01 03:51:17;;;;;;;17.87;11.63;;;3.60;99.90;;;;;;5029456;28;20214;-70
2023/03/01 03:53:47;;;;;;;20.53;11.50;;;3.50;99.90;;;;;;5029328;28;20195;-69
2023/03/01 03:56:16;;;;;;;24.87;12.77;;;3.60;99.90;;;;;;5029488;28;20195;-70
2023/03/01 03:58:44;;;;;;;21.90;13.30;;;3.70;99.90;;;;;;5028830;28;20710;-70
2023/03/01 04:01:13;;;;;;;23.27;12.73;;;3.70;99.90;;;;;;5029358;28;20205;-69
2023/03/01 04:03:46;;;;;;;25.33;13.37;;;3.50;99.90;;;;;;5045082;28;20548;-69
2023/03/01 04:06:15;;;;;;;26.10;13.00;;;3.60;99.90;;;;;;5111940;28;20185;-70
2023/03/01 04:08:44;;;;;;;17.87;12.47;;;3.60;99.90;;;;;;5111879;28;20202;-69
2023/03/01 04:11:28;;;;;;;19.87;11.90;;;3.70;99.90;;;;;;5112125;28;20816;-69
2023/03/01 04:13:59;;;;;;;21.77;12.47;;;3.70;99.90;;;;;;5111859;28;20201;-69
2023/03/01 04:16:29;;;;;;;23.20;12.57;;;3.60;99.90;;;;;;5111922;28;20234;-70
2023/03/01 04:19:00;;;;;;;20.67;12.57;;;3.60;99.90;;;;;;5111920;28;20212;-70
2023/03/01 04:21:29;;;;;;;20.17;12.60;;;3.60;99.90;;;;;;5112069;28;20206;-70
2023/03/01 04:23:58;;;;;;;20.00;12.70;;;3.60;99.90;;;;;;5112036;28;20791;-69
2023/03/01 04:26:27;;;;;;;19.57;11.83;;;3.70;99.90;;;;;;5111807;28;20203;-70
2023/03/01 04:28:57;;;;;;;25.33;14.90;;;3.70;99.90;;;;;;5111725;28;20283;-70
2023/03/01 04:31:26;;;;;;;22.47;13.60;;;3.70;99.90;;;;;;5111833;28;20652;-70
2023/03/01 04:33:56;;;;;;;18.27;12.73;;;3.60;99.90;;;;;;5111775;28;20263;-69
2023/03/01 04:36:29;;;;;;;23.50;13.57;;;3.60;99.90;;;;;;5111605;28;20198;-70
2023/03/01 04:38:59;;;;;;;20.63;12.67;;;3.70;99.90;;;;;;5111856;28;20279;-70
2023/03/01 04:41:27;;;;;;;22.80;13.13;;;3.70;99.90;;;;;;5111733;28;20234;-70
2023/03/01 04:43:56;;;;;;;18.80;12.97;;;3.60;99.90;;;;;;5112503;28;20208;-71
2023/03/01 04:46:25;;;;;;;22.50;13.60;;;3.70;99.90;;;;;;5114189;27;20201;-69
2023/03/01 04:48:54;;;;;;;22.93;13.23;;;3.70;99.90;;;;;;5115528;28;20763;-70
2023/03/01 04:51:23;;;;;;;25.33;14.57;;;3.70;99.90;;;;;;5115343;28;20198;-70
2023/03/01 04:53:53;;;;;;;22.23;13.63;;;3.80;99.90;;;;;;5115476;28;20197;-70
2023/03/01 04:56:25;;;;;;;17.77;11.43;;;3.80;99.90;;;;;;5115263;28;20243;-69
2023/03/01 04:58:55;;;;;;;21.87;12.90;;;3.80;99.90;;;;;;5114936;28;20219;-71
2023/03/01 05:01:23;;;;;;;23.87;13.30;;;3.80;99.90;;;;;;5115265;28;20225;-70
2023/03/01 05:03:53;;;;;;;24.37;12.73;;;3.70;99.90;;;;;;5115294;28;20201;-71
2023/03/01 05:06:22;;;;;;;20.80;12.73;;;3.70;99.90;;;;;;5113795;28;20209;-72
2023/03/01 05:08:51;;;;;;;23.97;13.93;;;3.60;99.90;;;;;;5114949;28;20203;-71
2023/03/01 05:11:21;;;;;;;28.23;15.23;;;3.70;99.90;;;;;;5115042;28;20248;-70
2023/03/01 05:13:54;;;;;;;27.17;15.50;;;3.60;99.90;;;;;;5114943;28;20194;-68
2023/03/01 05:16:23;;;;;;;28.00;15.10;;;3.60;99.90;;;;;;5114906;28;20605;-69
2023/03/01 05:18:52;;;;;;;23.47;14.40;;;3.60;99.90;;;;;;5114802;28;20211;-70
2023/03/01 05:21:23;;;;;;;27.73;15.40;;;3.50;99.90;;;;;;5114804;27;20603;-69
2023/03/01 05:23:52;;;;;;;25.90;14.73;;;3.50;99.90;;;;;;5114648;28;20624;-68
2023/03/01 05:26:27;;;;;;;30.67;16.23;;;3.50;99.90;;;;;;5114726;28;20203;-69
2023/03/01 05:28:58;;;;;;;33.30;15.40;;;3.50;99.90;;;;;;5114685;28;20206;-69
2023/03/01 05:31:28;;;;;;;26.90;14.67;;;3.50;99.90;;;;;;5113987;28;20229;-68
2023/03/01 05:33:59;;;;;;;29.83;16.23;;;3.50;99.90;;;;;;5114572;28;20296;-68
2023/03/01 05:36:28;;;;;;;29.63;15.47;;;3.40;99.90;;;;;;5114456;28;20201;-69
2023/03/01 05:38:57;;;;;;;37.27;18.10;;;3.40;99.90;;;;;;5114523;27;20211;-69
2023/03/01 05:41:27;;;;;;;27.80;15.13;;;3.40;99.90;;;;;;5113725;28;20215;-68
2023/03/01 05:43:56;;;;;;;23.67;14.33;;;3.40;99.90;;;;;;5113697;28;20194;-69
2023/03/01 05:46:25;;;;;;;29.63;15.43;;;3.40;99.90;;;;;;5114132;28;20199;-69
2023/03/01 05:48:55;;;;;;;32.10;16.47;;;3.40;99.90;;;;;;5114198;28;20199;-69
2023/03/01 05:51:23;;;;;;;31.37;16.20;;;3.50;99.90;;;;;;5114215;28;20200;-69
2023/03/01 05:53:52;;;;;;;29.47;17.03;;;3.50;99.90;;;;;;5114220;28;20681;-69
2023/03/01 05:56:22;;;;;;;31.53;18.63;;;3.40;99.90;;;;;;5113970;28;20744;-71
2023/03/01 05:58:52;;;;;;;33.30;16.70;;;3.40;99.90;;;;;;5113847;28;20249;-69
2023/03/01 06:01:21;;;;;;;28.70;15.23;;;3.30;99.90;;;;;;5113835;28;20229;-69
2023/03/01 06:03:50;;;;;;;27.40;15.30;;;3.20;99.90;;;;;;5113788;28;20204;-70
2023/03/01 06:06:19;;;;;;;28.20;16.10;;;3.30;99.90;;;;;;5113839;28;20199;-70
2023/03/01 06:08:47;;;;;;;27.93;14.90;;;3.30;99.90;;;;;;5113627;28;20194;-70
2023/03/01 06:11:16;;;;;;;31.60;16.33;;;3.40;99.90;;;;;;5113715;28;20193;-70
2023/03/01 06:13:46;;;;;;;32.07;15.67;;;3.40;99.90;;;;;;5101771;28;20661;-71
2023/03/01 06:16:16;;;;;;;34.47;15.90;;;3.40;99.90;;;;;;5093157;28;20213;-70
2023/03/01 06:18:45;;;;;;;29.13;16.77;;;3.40;99.90;;;;;;5108878;28;20656;-71
2023/03/01 06:21:14;;;;;;;30.97;15.83;;;3.50;99.90;;;;;;5113492;28;20643;-70
2023/03/01 06:23:43;;;;;;;28.93;15.37;;;3.60;99.90;;;;;;5113502;28;20252;-71
2023/03/01 06:26:12;;;;;;;33.57;15.73;;;3.60;99.90;;;;;;5100859;28;20319;-71
2023/03/01 06:28:41;;;;;;;37.17;16.63;;;3.50;99.90;;;;;;5099877;28;20666;-70
2023/03/01 06:31:09;;;;;;;34.17;16.43;;;3.50;99.90;;;;;;5101161;28;20195;-71
2023/03/01 06:33:40;;;;;;;35.80;17.57;;;3.40;99.90;;;;;;5093080;28;20202;-71
2023/03/01 06:36:10;;;;;;;29.70;16.13;;;3.50;99.90;;;;;;5092926;28;20247;-70
2023/03/01 06:38:40;;;;;;;31.47;15.27;;;3.50;99.90;;;;;;5093057;28;20248;-71
2023/03/01 06:41:09;;;;;;;25.40;14.63;;;3.60;99.90;;;;;;5092721;28;20720;-70
2023/03/01 06:43:38;;;;;;;30.90;14.60;;;3.60;99.90;;;;;;5092759;28;20272;-70
2023/03/01 06:46:07;;;;;;;29.63;15.57;;;3.50;99.90;;;;;;5092513;28;20334;-69
2023/03/01 06:48:37;;;;;;;29.90;15.60;;;3.60;99.90;;;;;;5104200;28;20195;-69
2023/03/01 06:51:07;;;;;;;29.37;13.53;;;3.60;99.90;;;;;;5092605;28;20536;-70
2023/03/01 06:53:37;;;;;;;30.50;14.53;;;3.60;99.90;;;;;;5092533;28;20298;-70
2023/03/01 06:56:06;;;;;;;32.43;16.23;;;3.60;99.90;;;;;;5092314;28;20535;-71
2023/03/01 06:58:35;;;;;;;36.10;16.67;;;3.60;99.90;;;;;;5092235;28;20234;-70
2023/03/01 07:01:07;;;;;;;35.40;15.70;;;3.70;99.90;;;;;;5092542;28;20230;-71
2023/03/01 07:03:36;;;;;;;27.00;14.53;;;3.70;99.90;;;;;;5092502;28;20194;-71
2023/03/01 07:06:05;;;;;;;36.63;16.33;;;3.70;99.90;;;;;;5092252;28;20606;-70
2023/03/01 07:08:35;;;;;;;35.00;15.27;;;3.80;99.90;;;;;;5092184;28;20533;-71
2023/03/01 07:11:05;;;;;;;30.73;15.60;;;3.80;99.90;;;;;;5092410;28;20190;-70
2023/03/01 07:13:35;;;;;;;31.23;14.47;;;3.90;99.90;;;;;;5092404;28;20210;-71
2023/03/01 07:16:04;;;;;;;30.07;15.57;;;4.00;99.90;;;;;;5092123;28;20209;-70
2023/03/01 07:18:33;;;;;;;28.80;15.43;;;3.90;99.90;;;;;;5092261;28;20213;-71
2023/03/01 07:21:06;;;;;;;26.83;15.07;;;4.00;99.90;;;;;;5092115;28;20211;-71
2023/03/01 07:23:37;;;;;;;34.50;16.87;;;4.00;99.90;;;;;;5092159;28;20658;-73
2023/03/01 07:26:06;;;;;;;27.97;14.97;;;4.10;99.90;;;;;;5092174;28;20304;-71
2023/03/01 07:28:38;;;;;;;31.03;15.83;;;4.10;99.90;;;;;;5091984;28;20203;-72
2023/03/01 07:31:07;;;;;;;26.93;14.57;;;4.20;99.90;;;;;;5091861;28;20196;-72
2023/03/01 07:33:36;;;;;;;28.67;15.83;;;4.10;99.90;;;;;;5092059;28;20615;-70
2023/03/01 07:36:06;;;;;;;28.53;16.37;;;4.30;99.90;;;;;;5091880;28;20196;-73
2023/03/01 07:38:36;;;;;;;31.80;16.33;;;4.40;99.90;;;;;;5093939;28;20669;-71
2023/03/01 07:41:06;;;;;;;28.80;15.40;;;4.40;99.90;;;;;;5112725;28;20210;-70
2023/03/01 07:43:35;;;;;;;29.17;16.70;;;4.50;99.90;;;;;;5112434;28;20202;-70
2023/03/01 07:46:05;;;;;;;31.27;15.90;;;4.50;99.90;;;;;;5112009;28;20213;-71
2023/03/01 07:48:34;;;;;;;31.53;15.00;;;4.60;99.90;;;;;;5112134;28;20209;-71
2023/03/01 07:51:07;;;;;;;35.60;15.80;;;4.60;99.90;;;;;;5111893;28;20680;-71
2023/03/01 07:53:37;;;;;;;33.10;17.67;;;4.60;99.90;;;;;;5109097;28;20200;-71
2023/03/01 07:56:08;;;;;;;35.47;18.53;;;4.50;99.90;;;;;;5103668;28;20197;-72
2023/03/01 07:58:38;;;;;;;35.13;17.20;;;4.50;99.90;;;;;;5112072;28;20231;-72
2023/03/01 08:01:08;;;;;;;32.10;16.77;;;4.50;99.90;;;;;;5111680;28;20238;-71
2023/03/01 08:03:38;;;;;;;30.27;15.30;;;4.50;99.90;;;;;;5111803;28;20187;-72
2023/03/01 08:06:08;;;;;;;26.40;15.80;;;4.50;99.90;;;;;;5110702;28;20219;-73
2023/03/01 08:08:39;;;;;;;29.60;15.40;;;4.40;99.90;;;;;;5111116;28;20196;-74
2023/03/01 08:11:11;;;;;;;24.80;14.97;;;4.60;99.90;;;;;;5108366;28;20200;-73
2023/03/01 08:13:40;;;;;;;26.60;15.00;;;4.60;99.90;;;;;;5095664;28;20209;-71
2023/03/01 08:16:11;;;;;;;25.17;13.50;;;4.80;99.90;;;;;;5089765;28;20238;-72
2023/03/01 08:18:40;;;;;;;28.70;16.47;;;4.70;99.90;;;;;;5091955;28;20203;-72
2023/03/01 08:21:11;;;;;;;23.30;13.83;;;4.70;99.90;;;;;;5095814;28;20207;-71
2023/03/01 08:23:43;;;;;;;24.93;15.13;;;4.80;99.90;;;;;;5095592;28;20197;-71
2023/03/01 08:26:13;;;;;;;24.23;13.00;;;4.80;99.90;;;;;;5095500;28;20205;-70
2023/03/01 08:28:42;;;;;;;23.50;14.07;;;4.60;99.90;;;;;;5095860;28;20299;-77
2023/03/01 08:31:16;;;;;;;25.73;13.73;;;4.60;99.90;;;;;;5096816;28;20202;-74
2023/03/01 08:33:50;;;;;;;25.83;12.93;;;4.60;99.90;;;;;;5103052;28;20261;-74
2023/03/01 08:36:20;;;;;;;21.87;13.20;;;4.50;99.90;;;;;;5116548;28;20673;-73
2023/03/01 08:38:51;;;;;;;23.90;14.10;;;4.60;99.90;;;;;;5113305;28;20623;-74
2023/03/01 08:41:21;;;;;;;21.00;12.90;;;4.60;99.90;;;;;;5114912;28;20198;-75
2023/03/01 08:43:49;;;;;;;27.17;16.17;;;4.70;99.90;;;;;;5109594;28;20668;-73
2023/03/01 08:46:18;;;;;;;25.57;15.20;;;4.90;99.90;;;;;;5103414;28;20204;-75
2023/03/01 08:48:48;;;;;;;83.53;42.67;;;4.90;99.90;;;;;;5113802;28;20658;-73
2023/03/01 08:51:19;;;;;;;27.97;16.07;;;5.00;99.90;;;;;;5115498;28;20191;-73
2023/03/01 08:53:48;;;;;;;27.57;17.00;;;5.00;99.90;;;;;;5115737;28;20191;-74
2023/03/01 08:56:19;;;;;;;34.03;19.03;;;5.00;99.90;;;;;;5116144;28;20217;-73
2023/03/01 08:58:49;;;;;;;24.60;14.43;;;5.00;99.90;;;;;;5115268;28;20227;-71
2023/03/01 09:01:20;;;;;;;27.30;14.50;;;5.00;99.90;;;;;;5115170;28;20539;-77
2023/03/01 09:03:49;;;;;;;21.63;14.23;;;5.10;99.90;;;;;;5115149;28;20581;-74
2023/03/01 09:06:18;;;;;;;24.00;13.97;;;5.10;99.90;;;;;;5115245;28;20196;-74
2023/03/01 09:08:49;;;;;;;22.83;13.10;;;4.90;99.90;;;;;;5115048;28;20195;-74
2023/03/01 09:11:21;;;;;;;24.57;14.60;;;4.90;99.90;;;;;;5115136;28;20199;-74
2023/03/01 09:13:51;;;;;;;23.50;14.80;;;5.00;99.90;;;;;;5094441;28;20877;-74
2023/03/01 09:16:21;;;;;;;24.67;14.33;;;4.80;99.90;;;;;;5093164;28;20539;-72
2023/03/01 09:18:52;;;;;;;28.23;15.10;;;4.90;99.90;;;;;;5093183;28;20577;-74
2023/03/01 09:21:22;;;;;;;26.20;15.63;;;5.00;99.90;;;;;;5094559;28;20192;-74
2023/03/01 09:24:07;;;;;;;34.23;21.10;;;5.10;99.90;;;;;;5094405;28;20202;-72
2023/03/01 09:26:38;;;;;;;28.03;15.97;;;5.10;99.90;;;;;;5093032;28;20760;-73
2023/03/01 09:29:09;;;;;;;26.50;14.97;;;5.30;99.90;;;;;;5094141;28;20635;-71
2023/03/01 09:31:41;;;;;;;26.80;15.50;;;5.30;99.90;;;;;;5093891;28;20219;-74
2023/03/01 09:34:10;;;;;;;23.67;14.77;;;5.20;99.90;;;;;;5096807;28;21611;-74
2023/03/01 09:36:39;;;;;;;24.93;14.97;;;5.40;99.90;;;;;;5106910;28;20579;-74
2023/03/01 09:39:08;;;;;;;25.77;14.67;;;5.40;99.90;;;;;;5099916;28;20200;-76
2023/03/01 09:41:48;;;;;;;22.50;14.47;;;5.50;99.90;;;;;;5111335;28;20195;-73
2023/03/01 09:44:29;;;;;;;31.33;16.17;;;5.50;99.90;;;;;;5112440;28;20207;-75
2023/03/01 09:46:59;;;;;;;24.87;13.50;;;5.50;99.90;;;;;;5113623;27;20196;-73
2023/03/01 09:49:31;;;;;;;24.37;14.73;;;5.50;99.90;;;;;;5114823;28;20194;-74
2023/03/01 09:52:04;;;;;;;25.63;15.50;;;5.40;99.90;;;;;;5112753;28;20188;-72
2023/03/01 09:54:33;;;;;;;32.10;16.67;;;5.40;99.90;;;;;;5106883;28;20200;-72
2023/03/01 09:57:20;;;;;;;28.27;16.20;;;5.70;99.90;;;;;;5101083;28;20194;-74
2023/03/01 10:00:00;;;;;;;32.10;17.40;;;5.90;99.90;;;;;;5094103;28;20669;-74
2023/03/01 10:02:39;;;;;;;27.57;15.73;;;5.80;99.90;;;;;;5104890;28;20226;-74
2023/03/01 10:05:30;;;;;;;29.43;17.10;;;5.80;99.90;;;;;;5114785;28;20195;-74
2023/03/01 10:08:25;;;;;;;27.23;15.87;;;5.80;99.90;;;;;;5100516;28;20632;-73
2023/03/01 10:10:55;;;;;;;25.67;16.03;;;5.70;99.90;;;;;;5114544;27;20299;-73
2023/03/01 10:13:29;;;;;;;28.13;16.03;;;5.50;99.90;;;;;;5114170;28;20191;-72
2023/03/01 10:16:06;;;;;;;29.20;15.63;;;5.50;99.90;;;;;;5103945;28;20210;-70
2023/03/01 10:18:37;;;;;;;31.30;17.70;;;5.60;99.90;;;;;;5091863;28;20220;-72
2023/03/01 10:21:16;;;;;;;25.00;14.77;;;5.80;99.90;;;;;;5097278;28;20664;-73
2023/03/01 10:23:45;;;;;;;28.67;16.20;;;5.70;99.90;;;;;;5096805;28;20831;-77
2023/03/01 10:26:30;;;;;;;27.37;15.63;;;5.70;99.90;;;;;;5105080;28;20196;-73
2023/03/01 10:29:04;;;;;;;28.13;17.43;;;5.60;99.90;;;;;;5114025;28;20206;-75
2023/03/01 10:31:44;;;;;;;23.33;13.93;;;5.70;99.90;;;;;;5108836;27;20188;-73
2023/03/01 10:34:16;;;;;;;25.80;15.67;;;5.70;99.90;;;;;;5101154;28;20188;-72
2023/03/01 10:36:50;;;;;;;26.27;15.90;;;5.90;99.90;;;;;;5113125;28;20236;-74
2023/03/01 10:39:20;;;;;;;26.17;15.27;;;6.20;99.90;;;;;;5110009;28;20193;-72
2023/03/01 10:42:01;;;;;;;25.27;15.53;;;6.20;99.90;;;;;;5111890;28;20223;-71
2023/03/01 10:44:46;;;;;;;22.93;15.33;;;6.00;99.90;;;;;;5104420;28;20570;-73
2023/03/01 10:47:23;;;;;;;29.00;16.30;;;6.00;99.90;;;;;;5112958;28;20196;-73
2023/03/01 10:50:01;;;;;;;23.43;14.30;;;6.00;99.90;;;;;;5113191;28;20212;-75
2023/03/01 10:52:35;;;;;;;25.63;15.47;;;6.10;99.90;;;;;;5112921;28;20195;-76
2023/03/01 10:55:25;;;;;;;21.63;13.77;;;6.30;99.90;;;;;;5113146;28;20244;-74
2023/03/01 10:58:08;;;;;;;31.40;17.87;;;6.50;99.90;;;;;;5112606;28;20234;-76
2023/03/01 11:00:50;;;;;;;39.23;22.13;;;6.60;99.90;;;;;;5112981;28;20720;-72
2023/03/01 11:03:23;;;;;;;33.40;19.43;;;6.60;99.90;;;;;;5104745;28;20216;-79
2023/03/01 11:05:59;;;;;;;26.70;15.37;;;6.90;99.90;;;;;;5095263;28;20229;-74
2023/03/01 11:08:46;;;;;;;26.03;15.43;;;7.50;99.90;;;;;;5112878;28;20225;-76
2023/03/01 11:11:31;;;;;;;22.63;14.67;;;7.90;99.90;;;;;;5092401;28;20201;-74
2023/03/01 11:14:04;;;;;;;23.17;14.77;;;7.70;99.30;;;;;;5092341;28;20197;-73
2023/03/01 11:17:01;;;;;;;24.07;15.80;;;7.70;99.60;;;;;;5092174;28;20196;-75
2023/03/01 11:19:31;;;;;;;26.13;16.83;;;7.40;99.90;;;;;;5092275;28;20283;-72
2023/03/01 11:22:04;;;;;;;28.20;16.13;;;7.40;99.90;;;;;;5092223;28;20219;-71
2023/03/01 11:24:40;;;;;;;25.47;15.93;;;7.60;99.90;;;;;;5092333;28;20231;-71
2023/03/01 11:27:19;;;;;;;24.43;16.47;;;7.70;99.90;;;;;;5091811;28;20193;-74
2023/03/01 11:29:54;;;;;;;23.97;15.37;;;7.40;99.90;;;;;;5092323;28;20242;-72
2023/03/01 11:32:27;;;;;;;25.30;15.77;;;7.20;99.90;;;;;;5091898;28;20625;-72
2023/03/01 11:35:02;;;;;;;21.70;15.60;;;7.30;99.90;;;;;;5009858;28;20588;-73
2023/03/01 11:37:37;;;;;;;25.23;15.03;;;7.40;99.90;;;;;;5009863;28;20209;-74
2023/03/01 11:40:17;;;;;;;20.47;14.37;;;8.60;99.90;;;;;;5009935;28;20676;-73
2023/03/01 11:42:58;;;;;;;20.43;14.20;;;9.80;83.50;;;;;;4993385;28;20543;-74
2023/03/01 11:45:42;;;;;;;22.70;15.37;;;9.30;86.30;;;;;;5009928;28;20250;-73
2023/03/01 11:48:42;;;;;;;24.97;17.27;;;9.70;88.00;;;;;;5024418;28;20685;-71
2023/03/01 11:51:26;;;;;;;20.70;15.07;;;10.40;78.20;;;;;;5036433;28;20193;-71
2023/03/01 11:54:13;;;;;;;21.77;14.57;;;10.40;76.00;;;;;;5092692;28;20682;-70
2023/03/01 11:56:48;;;;;;;17.57;13.93;;;11.00;75.80;;;;;;5111080;28;20202;-69
2023/03/01 11:59:53;;;;;;;18.13;12.87;;;12.30;69.70;;;;;;5108288;28;20286;-71
2023/03/01 12:02:51;;;;;;;18.30;13.30;;;12.50;63.00;;;;;;5066257;28;20249;-71
2023/03/01 12:05:50;;;;;;;17.13;12.30;;;15.30;56.90;;;;;;5047352;28;20266;-70
2023/03/01 12:08:28;;;;;;;22.83;14.27;;;15.50;53.30;;;;;;5070009;28;20197;-72
2023/03/01 12:11:04;;;;;;;17.80;12.67;;;14.70;54.30;;;;;;5069919;28;20207;-71
2023/03/01 12:14:06;;;;;;;22.47;14.30;;;13.70;56.20;;;;;;5068997;28;20212;-72
2023/03/01 12:16:51;;;;;;;16.83;13.50;;;13.10;57.40;;;;;;5028056;28;20217;-72
2023/03/01 12:19:38;;;;;;;17.90;11.13;;;12.60;59.00;;;;;;5029766;28;20305;-71
2023/03/01 12:22:22;;;;;;;17.93;12.60;;;11.40;61.90;;;;;;5029515;28;20244;-70
2023/03/01 12:25:13;;;;;;;15.07;12.07;;;11.00;64.90;;;;;;5013022;28;20746;-70
2023/03/01 12:27:59;;;;;;;16.03;12.53;;;10.60;69.10;;;;;;5018113;28;20224;-70
2023/03/01 12:30:40;;;;;;;14.87;12.03;;;10.30;72.00;;;;;;5029700;28;20200;-70
2023/03/01 12:33:21;;;;;;;15.83;11.80;;;10.30;74.30;;;;;;5029230;28;20215;-69
2023/03/01 12:36:06;;;;;;;15.23;11.73;;;10.20;74.50;;;;;;4970837;28;20235;-70
2023/03/01 12:38:43;;;;;;;15.03;12.40;;;10.20;74.70;;;;;;4946882;28;20219;-70
2023/03/01 12:41:42;;;;;;;16.83;11.17;;;10.30;75.00;;;;;;4951676;28;20220;-71
2023/03/01 12:44:22;;;;;;;17.07;12.13;;;10.70;73.10;;;;;;4932055;29;20238;-72
2023/03/01 12:47:08;;;;;;;16.50;11.80;;;11.60;70.20;;;;;;4926488;29;20273;-70
2023/03/01 12:49:41;;;;;;;12.00;10.23;;;15.30;58.50;;;;;;4932258;29;20218;-72
2023/03/01 12:52:17;;;;;;;16.40;11.67;;;16.30;51.20;;;;;;4932289;29;20202;-71
2023/03/01 12:54:49;;;;;;;15.17;10.70;;;18.40;49.20;;;;;;5036332;28;20769;-75
2023/03/01 12:57:26;;;;;;;13.50;10.40;;;19.70;45.70;;;;;;5049130;28;20291;-74
2023/03/01 13:00:07;;;;;;;13.03;10.07;;;20.40;44.40;;;;;;5049570;28;20203;-73
2023/03/01 13:02:42;;;;;;;11.47;9.37;;;21.40;41.70;;;;;;5066463;28;20295;-72
2023/03/01 13:05:27;;;;;;;12.23;8.90;;;21.50;40.60;;;;;;5070613;28;20588;-71
2023/03/01 13:08:06;;;;;;;14.00;9.43;;;20.90;42.30;;;;;;5072990;28;20201;-72